Bookmark and Share
Track history (hours):
 

Grande Portogallo

Last reported at 2014-Apr-15 02:34 UTC. Time now 2014-Apr-16 13:50 UTC.
Position N 34°29' E 035°50'.

Length 176 m; draft 8.4 m.

Type: Cargo ship. MMSI: 247065500.

NotesDate/timePositionNaut miles runAvg speedWind from/ knotsBaromVisibWave heightAir tempDewpointWater temp
2014-Apr-15 02:34N 34°29' E 035°50'82 2.3
2014-Apr-13 15:16N 34°00' E 034°18'1716.0
2014-Apr-13 14:12N 34°02' E 033°57'1516.2
2014-Apr-13 13:17N 34°04' E 033°39'1815.9
2014-Apr-13 12:08N 34°06' E 033°18'1016.0
2014-Apr-13 11:32N 34°07' E 033°06'1616.2
2014-Apr-13 10:33N 34°09' E 032°47'  
2014-Apr-10 17:28N 36°45' E 012°26'15815.9
2014-Apr-10 07:29N 37°55' E 009°28'1516.2
2014-Apr-10 06:32N 37°58' E 009°09'11615.9
2014-Apr-09 23:13N 38°21' E 006°44'14115.9
2014-Apr-09 14:20N 38°52' E 003°48'1215.5
2014-Apr-09 13:33N 38°54' E 003°32'1616.1
2014-Apr-09 12:34N 38°58' E 003°12'1414.1
2014-Apr-09 11:33N 39°01' E 002°54'1515.1
2014-Apr-09 10:33N 39°04' E 002°35'1615.4
2014-Apr-09 09:33N 39°07' E 002°16'1515.2
2014-Apr-09 08:33N 39°11' E 001°57'1515.3
2014-Apr-09 07:33N 39°14' E 001°37'1515.4
2014-Apr-09 06:33N 39°16' E 001°18'95 5.0
2014-Apr-08 11:33N 38°05' W 000°02'1716.7
2014-Apr-08 10:33N 37°51' W 000°14'1716.6
2014-Apr-08 09:33N 37°38' W 000°26'24915.6
2014-Apr-07 17:34N 36°01' W 005°12'2316.4
2014-Apr-07 16:09N 35°54' W 005°39'160 4.4
2014-Apr-06 03:28N 35°34' W 008°55'3216.6
2014-Apr-06 01:32N 36°01' W 009°15'1716.5
2014-Apr-06 00:31N 36°16' W 009°25'1616.1
2014-Apr-05 23:32N 36°30' W 009°34'1616.0
2014-Apr-05 22:33N 36°43' W 009°44'1615.7
2014-Apr-05 21:33N 36°59' W 009°47'2115.8
2014-Apr-05 20:12N 37°20' W 009°51'1215.8
2014-Apr-05 19:28N 37°31' W 009°54'3015.5
2014-Apr-05 17:33N 38°01' W 009°59'  

Dump ship's entire track history

sailing weather and tide predictions

Grande Portogallo — IBZW — position and weather